CheckWX is a tool to help pilots better visualize weather data.  It is not intended as a substitute for an official pre-flight weather briefing.

09:39:14 UTC

KJVW METAR
John Bell Williams Airport
Raymond, Mississippi, USA
Current

24 mins ago

KJVW 210915Z AUTO 00000KT 10SM M02/M02 A3054 RMK AO2
Observed
Jan-21 @ 09:15 UTC
Visibility
10 SM
Temperature
-2°C / 28°F
Dewpoint
-2°C / 28°F
Humidity
100%
Altimeter
30.54" Hg
Pressure
1034.22 hPa
Previous

44 mins ago

KJVW 210855Z AUTO 00000KT 10SM CLR M02/M01 A3054 RMK AO2
Observed
Jan-21 @ 08:55 UTC
Visibility
10 SM
Flight Rules
VFR
Cloud Levels
  • Clear skies
Temperature
-2°C / 28°F
Dewpoint
-1°C / 30°F
Humidity
107%
Altimeter
30.54" Hg
Pressure
1034.22 hPa
Previous

1 hour ago

KJVW 210835Z AUTO 00000KT 10SM CLR M02/M01 A3054 RMK AO2
Observed
Jan-21 @ 08:35 UTC
Visibility
10 SM
Flight Rules
VFR
Cloud Levels
  • Clear skies
Temperature
-2°C / 28°F
Dewpoint
-1°C / 30°F
Humidity
107%
Altimeter
30.54" Hg
Pressure
1034.22 hPa